• Join FlightAware (Why Join?)
  • Login
  • US Flag 
01:23PM EDT


 

Airport Tracker/Info


-or-


 

Live Flight TrackerFlight Track Log ✈ UPS1121 ✈ 13-Aug-2013 ✈ KBDL - KPHL

Flight Track Log - Related Links

Times and Time Zones

All times are in EDT time to prevent confusion due to time zone crossing. See the UPS1121 flight status page for this flight to view local times or setup timezone preferences in your user account.

Time Position Orientation Groundspeed Altitude Reporting Facility
EDT Latitude Longitude Course Direction KTS MPH feet Rate Location/Type
09:58PM 41.9333 -72.6997 211° Southwest 170 196 1,200  Level Boston Center
10:03PM 41.6840 -72.8970 139° Southeast 356 410 13,100 2,280 Climbing FlightAware
10:03PM 41.6710 -72.8710 124° Southeast 361 415 14,100 1,620 Climbing FlightAware
10:04PM 41.6450 -72.8000 116° Southeast 371 427 14,700 1,920 Climbing FlightAware
10:05PM 41.6270 -72.7850 148° Southeast 372 428 17,200 3,900 Climbing FlightAware
10:05PM 41.5110 -72.7830 179° South 382 440 19,100 3,420 Climbing FlightAware
10:06PM 41.4510 -72.7850 181° South 379 436 20,000 660 Climbing FlightAware
10:06PM 41.3710 -72.7880 182° South 377 434 20,000  Level FlightAware
10:07PM 41.3040 -72.7890 181° South 381 438 20,000  Level FlightAware
10:08PM 41.2250 -72.7910 181° South 390 449 20,000  Level FlightAware
10:08PM 41.1620 -72.7930 181° South 390 449 20,000  Level FlightAware
10:09PM 41.1000 -72.7940 181° South 389 448 20,000  Level FlightAware
10:10PM 41.0370 -72.7960 181° South 392 451 20,000  Level FlightAware
10:10PM 40.9720 -72.7990 182° South 390 449 20,000  Level FlightAware
10:11PM 40.9032 -72.8260 197° South 386 444 20,000  Level FlightAware ADS-B
10:11PM 40.8890 -72.8361 208° Southwest 378 435 20,000  Level FlightAware ADS-B
10:11PM 40.8415 -72.8708 209° Southwest 378 435 20,000  Level FlightAware ADS-B
10:12PM 40.7907 -72.9078 209° Southwest 378 435 20,000  Level FlightAware ADS-B
10:13PM 40.7401 -72.9443 209° Southwest 378 435 20,000  Level FlightAware ADS-B
10:13PM 40.6918 -72.9791 209° Southwest 379 436 20,000  Level FlightAware ADS-B
10:14PM 40.6456 -73.0124 209° Southwest 379 436 20,000  Level FlightAware ADS-B
10:14PM 40.5977 -73.0469 209° Southwest 381 438 20,000  Level FlightAware ADS-B
10:15PM 40.5458 -73.0842 209° Southwest 383 441 20,000  Level FlightAware ADS-B
10:15PM 40.4984 -73.1182 209° Southwest 384 442 20,000  Level FlightAware ADS-B
10:16PM 40.4511 -73.1520 209° Southwest 385 443 20,000  Level FlightAware ADS-B
10:16PM 40.4038 -73.1859 209° Southwest 387 445 20,000  Level FlightAware ADS-B
10:17PM 40.3560 -73.2202 209° Southwest 388 447 20,000  Level FlightAware ADS-B
10:17PM 40.3009 -73.2596 209° Southwest 388 447 20,000  Level FlightAware ADS-B
10:18PM 40.2530 -73.2939 209° Southwest 388 447 20,000  Level FlightAware ADS-B
10:18PM 40.2002 -73.3315 209° Southwest 390 449 20,000  Level FlightAware ADS-B
10:19PM 40.1488 -73.3681 209° Southwest 391 450 20,000  Level FlightAware ADS-B
10:19PM 40.0952 -73.4063 209° Southwest 391 450 20,000  Level FlightAware ADS-B
10:20PM 40.0463 -73.4410 209° Southwest 391 450 20,000  Level FlightAware ADS-B
10:20PM 40.0018 -73.4743 210° Southwest 389 448 20,000  Level FlightAware ADS-B
10:21PM 39.9810 -73.4942 216° Southwest 388 447 20,000  Level FlightAware ADS-B
10:21PM 39.9597 -73.5192 222° Southwest 387 445 20,000  Level FlightAware ADS-B
10:21PM 39.9227 -73.5716 227° Southwest 387 445 20,000  Level FlightAware ADS-B
10:22PM 39.8850 -73.6258 228° Southwest 387 445 20,000  Level FlightAware ADS-B
10:22PM 39.8483 -73.6785 228° Southwest 385 443 20,000  Level FlightAware ADS-B
10:23PM 39.8102 -73.7333 228° Southwest 383 441 20,000  Level FlightAware ADS-B
10:24PM 39.7740 -73.7850 228° Southwest 382 440 20,000  Level FlightAware ADS-B
10:24PM 39.7367 -73.8383 228° Southwest 382 440 20,000 -120 Level FlightAware ADS-B
10:25PM 39.6993 -73.8918 228° Southwest 352 405 19,900 -1,200 Descending FlightAware ADS-B
10:25PM 39.6657 -73.9398 228° Southwest 361 415 18,800 -1,800 Descending FlightAware ADS-B
10:26PM 39.6316 -73.9887 228° Southwest 360 414 18,100 -1,680 Descending FlightAware ADS-B
10:26PM 39.5981 -74.0364 228° Southwest 349 402 17,100 -2,400 Descending FlightAware ADS-B
10:27PM 39.5657 -74.0828 228° Southwest 345 397 15,700 -2,760 Descending FlightAware ADS-B
10:27PM 39.5435 -74.1151 228° Southwest 342 394 14,800 -2,580 Descending FlightAware ADS-B
10:27PM 39.5391 -74.1236 236° Southwest 341 392 14,600 -2,040 Descending FlightAware ADS-B
10:27PM 39.5321 -74.1419 244° Southwest 341 392 14,300 -1,200 Descending FlightAware ADS-B
10:27PM 39.5278 -74.1617 254° West 342 394 14,200 -480 Descending FlightAware ADS-B
10:27PM 39.5269 -74.1694 261° West 344 396 14,200  Level FlightAware ADS-B
10:28PM 39.5264 -74.1846 268° West 344 396 14,200 -240 Level FlightAware ADS-B
10:28PM 39.5269 -74.2355 271° West 341 392 14,100 -120 Descending FlightAware ADS-B
10:28PM 39.5282 -74.2984 272° West 345 397 14,100  Level FlightAware ADS-B
10:29PM 39.5294 -74.3618 271° West 349 402 14,100 -120 Level FlightAware ADS-B
10:30PM 39.5306 -74.4250 271° West 325 374 14,000 -1,200 Descending FlightAware ADS-B
10:30PM 39.5316 -74.4827 271° West 317 365 12,900 -2,340 Descending FlightAware ADS-B
10:31PM 39.5324 -74.5436 271° West 320 368 11,600 -2,280 Descending FlightAware ADS-B
10:31PM 39.5330 -74.6055 271° West 310 357 10,500 -1,260 Descending FlightAware ADS-B
10:32PM 39.5336 -74.6600 271° West 281 323 10,300 -600 Descending FlightAware ADS-B
10:32PM 39.5342 -74.7074 271° West 263 303 9,900 -1,080 Descending FlightAware ADS-B
10:32PM 39.5345 -74.7325 271° West 261 300 9,500 -1,500 Descending FlightAware ADS-B
10:33PM 39.5349 -74.7590 271° West 261 300 9,100 -900 Descending FlightAware ADS-B
10:33PM 39.5351 -74.7741 271° West 262 302 9,100  Level FlightAware ADS-B
10:33PM 39.5355 -74.7982 271° West 265 305 9,100  Level FlightAware ADS-B
10:33PM 39.5359 -74.8278 271° West 272 313 9,100  Level FlightAware ADS-B
10:34PM 39.5362 -74.8524 271° West 271 312 9,100  Level FlightAware ADS-B
10:34PM 39.5364 -74.8854 270° West 274 315 9,100  Level FlightAware ADS-B
10:34PM 39.5370 -74.9120 272° West 275 316 9,100  Level FlightAware ADS-B
10:34PM 39.5392 -74.9256 282° West 273 314 9,100 -360 Level FlightAware ADS-B
10:34PM 39.5436 -74.9377 295° West 272 313 9,000 -600 Descending FlightAware ADS-B
10:35PM 39.5460 -74.9419 307° West 272 313 9,000 -900 Level FlightAware ADS-B
10:35PM 39.5487 -74.9459 311° West 273 314 8,900 -900 Descending FlightAware ADS-B
10:35PM 39.5520 -74.9499 317° Northwest 273 314 8,900 -1,320 Level FlightAware ADS-B
10:35PM 39.5929 -74.9660 343° North 273 314 8,100 -1,560 Descending FlightAware ADS-B
10:35PM 39.6053 -74.9680 353° North 278 320 7,800 -1,440 Descending FlightAware ADS-B
10:36PM 39.6267 -74.9715 353° North 271 312 7,500 -1,320 Descending FlightAware ADS-B
10:36PM 39.6469 -74.9749 353° North 265 305 7,100 -1,380 Descending FlightAware ADS-B
10:36PM 39.6656 -74.9783 352° North 263 303 6,800 -1,380 Descending FlightAware ADS-B
10:36PM 39.6841 -74.9822 351° North 261 300 6,400 -1,560 Descending FlightAware ADS-B
10:37PM 39.7032 -74.9865 350° North 261 300 6,000 -1,560 Descending FlightAware ADS-B
10:37PM 39.7224 -74.9909 350° North 261 300 5,600 -1,380 Descending FlightAware ADS-B
10:37PM 39.7405 -74.9951 350° North 259 298 5,300 -1,200 Descending FlightAware ADS-B
10:37PM 39.7464 -74.9963 351° North 258 297 5,200 -720 Descending FlightAware ADS-B
10:37PM 39.7510 -74.9969 354° North 257 296 5,200 -780 Level FlightAware ADS-B
10:37PM 39.7552 -74.9971 358° North 255 293 5,100 -780 Descending FlightAware ADS-B
10:37PM 39.7601 -74.9964 North 252 290 5,100  Level FlightAware ADS-B
10:38PM 39.7635 -74.9955 12° North 251 289 5,100  Level FlightAware ADS-B
10:38PM 39.7677 -74.9937 18° North 249 287 5,100  Level FlightAware ADS-B
10:38PM 39.7775 -74.9860 31° Northeast 241 277 5,100 300 Level FlightAware ADS-B
10:38PM 39.7832 -74.9799 39° Northeast 235 270 5,200  Climbing FlightAware ADS-B
10:38PM 39.7938 -74.9675 42° Northeast 222 255 5,100 -240 Descending FlightAware ADS-B
10:38PM 39.8037 -74.9559 42° Northeast 212 244 5,100  Level FlightAware ADS-B
10:39PM 39.8147 -74.9429 42° Northeast 209 241 5,100 180 Level FlightAware ADS-B
10:39PM 39.8258 -74.9300 42° Northeast 209 241 5,200  Climbing FlightAware ADS-B
10:39PM 39.8324 -74.9224 41° Northeast 209 241 5,100 -480 Descending FlightAware ADS-B
10:39PM 39.8359 -74.9190 37° Northeast 206 237 5,100  Level FlightAware ADS-B
10:39PM 39.8400 -74.9163 27° Northeast 202 232 5,100  Level FlightAware ADS-B
10:39PM 39.8449 -74.9141 19° North 200 230 5,100 -360 Level FlightAware ADS-B
10:39PM 39.8552 -74.9109 13° North 196 226 5,000 -840 Descending FlightAware ADS-B
10:40PM 39.8833 -74.9039 11° North 194 223 4,500 -1,080 Descending FlightAware ADS-B
10:40PM 39.8862 -74.9036 North 194 223 4,400 -1,200 Descending FlightAware ADS-B
10:40PM 39.9094 -74.9133 342° North 193 222 3,900 -960 Descending FlightAware ADS-B
10:41PM 39.9121 -74.9165 318° Northwest 184 212 3,900 -840 Level FlightAware ADS-B
10:41PM 39.9179 -74.9256 310° West 182 209 3,700 -1,140 Descending FlightAware ADS-B
10:41PM 39.9200 -74.9305 299° West 181 208 3,600 -1,200 Descending FlightAware ADS-B
10:41PM 39.9211 -74.9359 285° West 181 208 3,500 -1,500 Descending FlightAware ADS-B
10:41PM 39.9214 -74.9396 276° West 181 208 3,400 -1,020 Descending FlightAware ADS-B
10:41PM 39.9215 -74.9429 272° West 181 208 3,400 -900 Level FlightAware ADS-B
10:41PM 39.9214 -74.9476 268° West 181 208 3,300 -1,020 Descending FlightAware ADS-B
10:41PM 39.9207 -74.9562 264° West 179 206 3,200 -720 Descending FlightAware ADS-B
10:41PM 39.9198 -74.9661 263° West 174 200 3,100 -240 Descending FlightAware ADS-B
10:42PM 39.9180 -74.9824 262° West 174 200 3,100  Level FlightAware ADS-B
10:42PM 39.9168 -74.9940 262° West 177 204 3,100  Level FlightAware ADS-B
10:42PM 39.9153 -75.0109 263° West 178 205 3,100 -360 Level FlightAware ADS-B
10:43PM 39.9096 -75.0490 259° West 184 212 2,800 -720 Descending FlightAware ADS-B
10:43PM 39.9063 -75.0660 256° West 180 207 2,500 -1,020 Descending FlightAware ADS-B
10:43PM 39.9032 -75.0819 256° West 175 201 2,300 -780 Descending FlightAware ADS-B
10:43PM 39.8999 -75.0986 256° West 162 186 2,100 -900 Descending FlightAware ADS-B
10:44PM 39.8968 -75.1143 256° West 145 167 1,800 -960 Descending FlightAware ADS-B
10:44PM 39.8942 -75.1271 255° West 130 150 1,600 -600 Descending FlightAware ADS-B
10:44PM 39.8933 -75.1318 256° West 124 143 1,600 -420 Level FlightAware ADS-B
10:44PM 39.8921 -75.1381 256° West 117 135 1,500 -840 Descending FlightAware ADS-B
10:44PM 39.8904 -75.1467 256° West 109 125 1,300 -600 Descending FlightAware ADS-B
10:45PM 39.8894 -75.1514 255° West 105 121 1,300 -540 Level FlightAware ADS-B
10:45PM 39.8875 -75.1614 256° West 103 119 1,100 -600 Descending FlightAware ADS-B
10:45PM 39.8855 -75.1710 255° West 104 120 1,000 -420 Descending FlightAware ADS-B
10:45PM 39.8838 -75.1797 256° West 106 122 900 -660 Descending FlightAware ADS-B
10:46PM 39.8819 -75.1892 255° West 109 125 700 -780 Descending FlightAware ADS-B
10:46PM 39.8797 -75.2003 256° West 109 125 500 -600 Descending FlightAware ADS-B
10:46PM 39.8777 -75.2104 256° West 109 125 400 -420 Descending FlightAware ADS-B